createdAt,value
2022-10-14T00:02:31.175Z,93022.41
2022-10-14T00:05:15.257Z,93026.59
2022-10-14T00:07:58.208Z,93024.69
2022-10-14T00:10:42.439Z,93022.75
2022-10-14T00:13:25.306Z,93018.28
2022-10-14T00:16:15.987Z,93014.56
2022-10-14T00:18:59.351Z,93009.59
2022-10-14T00:21:45.256Z,93019.06
2022-10-14T00:24:30.116Z,93019.72
2022-10-14T00:27:14.339Z,93022.97
2022-10-14T00:29:57.246Z,93023.78
2022-10-14T00:32:40.122Z,93026.97
2022-10-14T00:35:25.206Z,93024.00
2022-10-14T00:38:08.069Z,93024.25
2022-10-14T00:40:51.526Z,93026.34
2022-10-14T00:43:55.390Z,93028.09
2022-10-14T00:46:40.032Z,93027.97
2022-10-14T00:49:24.579Z,93028.63
2022-10-14T00:52:14.616Z,93029.28
2022-10-14T00:55:01.622Z,93032.34
2022-10-14T00:57:45.311Z,93026.06
2022-10-14T01:00:29.611Z,93023.34
2022-10-14T01:03:19.756Z,93024.16
2022-10-14T01:06:11.055Z,93024.00
2022-10-14T01:09:01.774Z,93027.22
2022-10-14T01:12:04.382Z,93022.06
2022-10-14T01:15:05.198Z,93024.50
2022-10-14T01:18:01.753Z,93024.50
2022-10-14T01:21:02.881Z,93017.56
2022-10-14T01:24:34.328Z,93014.19
2022-10-14T01:27:56.598Z,93013.84
2022-10-14T01:30:45.786Z,93018.19
2022-10-14T01:33:36.406Z,93021.44
2022-10-14T01:36:24.699Z,93020.31
2022-10-14T01:39:14.909Z,93023.53
2022-10-14T01:42:05.007Z,93025.94
2022-10-14T01:44:53.031Z,93024.34
2022-10-14T01:47:39.626Z,93028.53
2022-10-14T01:50:26.668Z,93015.81
2022-10-14T01:53:15.311Z,93006.47
2022-10-14T01:55:59.489Z,93015.16
2022-10-14T01:58:44.605Z,93010.13
2022-10-14T02:01:27.795Z,93008.69
2022-10-14T02:04:17.507Z,93008.69
2022-10-14T02:07:07.281Z,93012.09
2022-10-14T02:10:04.722Z,93006.78
2022-10-14T02:12:58.017Z,93003.41
2022-10-14T02:15:52.294Z,93005.81
2022-10-14T02:18:42.003Z,93002.41
2022-10-14T02:21:33.962Z,93010.00
2022-10-14T02:24:23.591Z,93009.03
2022-10-14T02:27:10.231Z,93011.63
2022-10-14T02:29:56.631Z,93011.44
2022-10-14T02:32:41.559Z,93005.34
2022-10-14T02:35:29.722Z,93009.53
2022-10-14T02:38:14.019Z,93018.88
2022-10-14T02:40:57.209Z,93009.53
2022-10-14T02:43:40.109Z,93007.91
2022-10-14T02:46:24.485Z,93011.63
2022-10-14T02:49:07.330Z,93003.22
2022-10-14T02:51:51.791Z,93010.13
2022-10-14T02:54:36.015Z,93002.59
2022-10-14T02:57:19.145Z,93012.88
2022-10-14T03:00:02.054Z,93006.13
2022-10-14T03:02:45.592Z,93003.72
2022-10-14T03:05:30.857Z,92990.97
2022-10-14T03:08:13.784Z,92995.31
2022-10-14T03:10:58.458Z,92987.44
2022-10-14T03:13:42.203Z,92986.47
2022-10-14T03:16:25.664Z,92980.53
2022-10-14T03:19:09.166Z,92981.47
2022-10-14T03:21:58.577Z,92974.53
2022-10-14T03:24:42.653Z,92982.75
2022-10-14T03:27:51.803Z,92988.31
2022-10-14T03:30:40.799Z,92990.41
2022-10-14T03:33:33.673Z,92989.09
2022-10-14T03:36:26.560Z,92977.34
2022-10-14T03:39:12.787Z,92980.22
2022-10-14T03:42:02.878Z,92981.34
2022-10-14T03:44:55.669Z,92979.09
2022-10-14T03:47:46.016Z,92985.19
2022-10-14T03:50:29.772Z,92986.31
2022-10-14T03:53:13.432Z,92989.31
2022-10-14T03:55:56.346Z,92990.81
2022-10-14T03:58:40.877Z,92996.25
2022-10-14T04:01:30.377Z,92988.84
2022-10-14T04:04:42.784Z,92991.56
2022-10-14T04:07:25.817Z,92988.19
2022-10-14T04:10:12.969Z,92996.72
2022-10-14T04:13:00.981Z,92990.75
2022-10-14T04:15:51.295Z,92988.19
2022-10-14T04:18:46.722Z,92990.75
2022-10-14T04:21:33.748Z,92987.22
2022-10-14T04:24:17.158Z,92989.66
2022-10-14T04:27:04.749Z,92989.66
2022-10-14T04:29:54.937Z,92986.25
2022-10-14T04:32:43.395Z,92988.19
2022-10-14T04:35:28.424Z,92991.72
2022-10-14T04:38:12.953Z,92983.03
2022-10-14T04:41:06.986Z,92976.25
2022-10-14T04:43:51.730Z,92978.53
2022-10-14T04:46:54.932Z,92977.44
2022-10-14T04:49:40.311Z,92976.31
2022-10-14T04:52:33.330Z,92979.56
2022-10-14T04:55:22.490Z,92980.50
2022-10-14T04:58:06.267Z,92969.56
2022-10-14T05:00:55.896Z,92966.16
2022-10-14T05:03:47.112Z,92969.72
2022-10-14T05:06:30.295Z,92973.25
2022-10-14T05:09:14.773Z,92974.22
2022-10-14T05:11:58.896Z,92967.28
2022-10-14T05:14:51.830Z,92961.19
2022-10-14T05:17:44.524Z,92969.56
2022-10-14T05:20:29.741Z,92962.50
2022-10-14T05:23:14.554Z,92955.72
2022-10-14T05:25:59.127Z,92954.75
2022-10-14T05:28:42.261Z,92958.00
2022-10-14T05:31:25.614Z,92947.69
2022-10-14T05:34:17.457Z,92947.69
2022-10-14T05:37:00.906Z,92945.13
2022-10-14T05:39:48.443Z,92943.22
2022-10-14T05:42:36.140Z,92949.94
2022-10-14T05:45:19.506Z,92948.97
2022-10-14T05:48:07.464Z,92947.38
2022-10-14T05:50:51.468Z,92953.34
2022-10-14T05:53:39.243Z,92955.91
2022-10-14T05:56:27.430Z,92963.16
2022-10-14T05:59:12.884Z,92965.84
2022-10-14T06:01:56.418Z,92962.50
2022-10-14T06:04:42.526Z,92960.22
2022-10-14T06:07:25.780Z,92958.78
2022-10-14T06:10:10.769Z,92958.88
2022-10-14T06:12:53.775Z,92953.44
2022-10-14T06:15:38.962Z,92970.44
2022-10-14T06:18:22.221Z,92958.53
2022-10-14T06:21:06.120Z,92966.91
2022-10-14T06:23:50.164Z,92965.13
2022-10-14T06:26:33.017Z,92967.06
2022-10-14T06:29:16.116Z,92964.41
2022-10-14T06:32:00.563Z,92960.03
2022-10-14T06:34:43.421Z,92962.78
2022-10-14T06:37:26.273Z,92967.63
2022-10-14T06:40:09.878Z,92969.13
2022-10-14T06:42:53.628Z,92978.31
2022-10-14T06:45:36.545Z,92986.53
2022-10-14T06:48:20.738Z,92981.50
2022-10-14T06:51:04.066Z,92978.94
2022-10-14T06:53:46.957Z,92978.16
2022-10-14T06:56:29.876Z,92985.56
2022-10-14T06:59:12.894Z,92976.72
2022-10-14T07:01:55.932Z,92986.88
2022-10-14T07:04:40.705Z,92981.56
2022-10-14T07:07:23.441Z,92990.09
2022-10-14T07:10:06.927Z,92987.22
2022-10-14T07:12:49.764Z,92983.03
2022-10-14T07:15:35.428Z,92983.69
2022-10-14T07:18:19.936Z,92972.44
2022-10-14T07:21:05.001Z,92981.59
2022-10-14T07:23:47.936Z,92981.31
2022-10-14T07:26:31.434Z,92991.13
2022-10-14T07:29:14.507Z,92979.56
2022-10-14T07:31:57.482Z,92983.63
2022-10-14T07:34:40.398Z,92987.50
2022-10-14T07:37:24.820Z,92988.16
2022-10-14T07:40:09.878Z,92988.00
2022-10-14T07:42:52.893Z,92987.66
2022-10-14T07:45:36.381Z,92987.66
2022-10-14T07:48:27.294Z,93001.06
2022-10-14T07:51:21.607Z,93000.09
2022-10-14T07:54:09.791Z,92994.97
2022-10-14T07:56:53.566Z,93001.56
2022-10-14T07:59:36.518Z,93001.38
2022-10-14T08:02:19.459Z,93002.03
2022-10-14T08:08:05.322Z,93006.91
2022-10-14T08:10:49.557Z,93002.56
2022-10-14T08:13:32.901Z,92990.47
2022-10-14T08:16:18.085Z,92998.56
2022-10-14T08:19:03.410Z,93003.53
2022-10-14T08:21:46.296Z,93001.78
2022-10-14T08:24:29.241Z,93001.44
2022-10-14T08:27:13.498Z,93003.06
2022-10-14T08:29:57.496Z,93002.41
2022-10-14T08:32:40.424Z,93009.66
2022-10-14T08:35:23.364Z,93006.13
2022-10-14T08:38:06.210Z,93004.38
2022-10-14T08:41:01.088Z,93007.72
2022-10-14T08:43:51.024Z,92999.22
2022-10-14T08:46:40.274Z,93002.75
2022-10-14T08:49:28.004Z,93005.97
2022-10-14T08:52:16.656Z,93008.69
2022-10-14T08:55:03.673Z,93003.53
2022-10-14T08:57:52.406Z,93003.72
2022-10-14T09:00:37.377Z,93006.13
2022-10-14T09:03:23.602Z,93009.34
2022-10-14T09:06:12.306Z,92996.00
2022-10-14T09:08:58.378Z,92992.94
2022-10-14T09:11:43.920Z,92995.88
2022-10-14T09:14:30.978Z,92998.94
2022-10-14T09:17:21.398Z,92993.47
2022-10-14T09:20:14.479Z,92989.78
2022-10-14T09:23:11.431Z,92997.19
2022-10-14T09:25:58.619Z,92989.94
2022-10-14T09:28:44.254Z,92997.22
2022-10-14T09:31:27.324Z,92999.31
2022-10-14T09:34:17.766Z,92995.13
2022-10-14T09:37:22.482Z,92993.38
2022-10-14T09:40:16.518Z,92993.03
2022-10-14T09:43:03.841Z,92988.06
2022-10-14T09:45:57.069Z,92985.47
2022-10-14T09:48:44.353Z,92993.06
2022-10-14T09:51:32.120Z,92993.09
2022-10-14T09:54:24.814Z,92986.00
2022-10-14T09:57:09.544Z,92990.03
2022-10-14T09:59:55.183Z,92997.94
2022-10-14T10:02:43.616Z,92994.38
2022-10-14T10:05:29.097Z,92996.63
2022-10-14T10:08:19.813Z,92988.25
2022-10-14T10:11:06.920Z,92995.53
2022-10-14T10:13:50.187Z,92993.75
2022-10-14T10:16:34.768Z,92990.34
2022-10-14T10:19:27.927Z,92992.59
2022-10-14T10:22:22.679Z,92993.06
2022-10-14T10:25:27.943Z,92983.88
2022-10-14T10:28:20.281Z,92991.81
2022-10-14T10:31:13.075Z,92984.84
2022-10-14T10:34:07.676Z,92980.03
2022-10-14T10:36:57.444Z,92980.97
2022-10-14T10:39:52.182Z,92970.50
2022-10-14T10:42:49.600Z,92964.03
2022-10-14T10:45:46.358Z,92960.13
2022-10-14T10:48:35.891Z,92963.22
2022-10-14T10:51:26.399Z,92942.84
2022-10-14T10:54:22.702Z,92945.25
2022-10-14T10:57:11.577Z,92942.16
2022-10-14T11:00:03.035Z,92941.97
2022-10-14T11:03:07.821Z,92943.19
2022-10-14T11:05:58.327Z,92944.91
2022-10-14T11:09:11.703Z,92944.34
2022-10-14T11:12:10.310Z,92937.34
2022-10-14T11:15:16.155Z,92938.94
2022-10-14T11:18:03.444Z,92937.63
2022-10-14T11:20:59.071Z,92935.50
2022-10-14T11:23:59.665Z,92936.50
2022-10-14T11:27:01.343Z,92930.81
2022-10-14T11:30:16.657Z,92939.91
2022-10-14T11:33:24.613Z,92930.47
2022-10-14T11:36:20.362Z,92932.50
2022-10-14T11:39:22.818Z,92917.25
2022-10-14T11:42:16.242Z,92908.53
2022-10-14T11:45:23.056Z,92904.44
2022-10-14T11:48:23.004Z,92883.13
2022-10-14T11:51:15.429Z,92886.50
2022-10-14T11:54:03.926Z,92882.16
2022-10-14T11:56:53.904Z,92882.41
2022-10-14T12:00:04.845Z,92881.59
2022-10-14T12:02:59.641Z,92880.53
2022-10-14T12:05:51.146Z,92878.63
2022-10-14T12:08:40.382Z,92882.44
2022-10-14T12:11:31.217Z,92889.31
2022-10-14T12:14:20.170Z,92886.31
2022-10-14T12:17:06.810Z,92887.31
2022-10-14T12:19:51.245Z,92881.06
2022-10-14T12:22:36.840Z,92884.22
2022-10-14T12:25:21.788Z,92881.78
2022-10-14T12:28:05.127Z,92880.22
2022-10-14T12:30:48.497Z,92881.41
2022-10-14T12:33:31.890Z,92884.16
2022-10-14T12:36:33.104Z,92879.91
2022-10-14T12:39:35.257Z,92879.25
2022-10-14T12:42:19.896Z,92874.31
2022-10-14T12:45:14.597Z,92867.75
2022-10-14T12:48:15.003Z,92868.38
2022-10-14T12:51:09.146Z,92868.22
2022-10-14T12:53:58.322Z,92863.91
2022-10-14T12:56:54.090Z,92849.03
2022-10-14T12:59:40.017Z,92849.81
2022-10-14T13:02:33.043Z,92861.19
2022-10-14T13:05:30.668Z,92842.41
2022-10-14T13:08:26.458Z,92842.59
2022-10-14T13:11:13.583Z,92838.19
2022-10-14T13:14:02.658Z,92836.50
2022-10-14T13:17:04.171Z,92836.53
2022-10-14T13:19:47.149Z,92831.94
2022-10-14T13:22:40.043Z,92833.38
2022-10-14T13:25:28.681Z,92834.38
2022-10-14T13:28:25.339Z,92824.28
2022-10-14T13:31:18.006Z,92827.09
2022-10-14T13:34:14.265Z,92822.34
2022-10-14T13:37:17.352Z,92820.41
2022-10-14T13:40:13.894Z,92815.81
2022-10-14T13:42:58.959Z,92813.59
2022-10-14T13:45:45.259Z,92811.81
2022-10-14T13:48:33.877Z,92807.25
2022-10-14T13:51:37.069Z,92804.44
2022-10-14T13:54:23.262Z,92797.81
2022-10-14T14:00:44.932Z,92792.47
2022-10-14T14:03:33.487Z,92789.22
2022-10-14T14:06:18.552Z,92786.81
2022-10-14T14:09:04.577Z,92784.34
2022-10-14T14:11:48.645Z,92783.66
2022-10-14T14:14:36.741Z,92789.25
2022-10-14T14:17:22.812Z,92788.81
2022-10-14T14:20:11.891Z,92792.13
2022-10-14T14:22:54.821Z,92781.03
2022-10-14T14:25:46.813Z,92786.72
2022-10-14T14:28:41.148Z,92795.69
2022-10-14T14:31:47.898Z,92777.75
2022-10-14T14:34:31.145Z,92782.31
2022-10-14T14:37:43.858Z,92777.50
2022-10-14T14:40:27.462Z,92777.06
2022-10-14T14:43:11.248Z,92784.59
2022-10-14T14:45:54.382Z,92772.34
2022-10-14T14:48:40.824Z,92766.75
2022-10-14T14:51:24.888Z,92763.75
2022-10-14T14:54:09.356Z,92771.25
2022-10-14T14:56:58.487Z,92775.19
2022-10-14T14:59:44.581Z,92777.09
2022-10-14T15:02:28.368Z,92768.28
2022-10-14T15:05:12.667Z,92759.28
2022-10-14T15:07:56.091Z,92767.59
2022-10-14T15:10:49.011Z,92776.25
2022-10-14T15:13:48.562Z,92770.03
2022-10-14T15:16:40.173Z,92768.00
2022-10-14T15:19:38.546Z,92777.88
2022-10-14T15:22:31.404Z,92776.94
2022-10-14T15:25:24.218Z,92774.28
2022-10-14T15:28:30.402Z,92770.19
2022-10-14T15:31:17.294Z,92772.75
2022-10-14T15:34:00.424Z,92774.72
2022-10-14T15:36:43.337Z,92773.31
2022-10-14T15:39:26.572Z,92768.13
2022-10-14T15:42:12.564Z,92762.31
2022-10-14T15:44:56.973Z,92760.72
2022-10-14T15:47:40.505Z,92752.97
2022-10-14T15:50:25.541Z,92749.94
2022-10-14T15:53:10.692Z,92753.69
2022-10-14T15:55:54.215Z,92745.66
2022-10-14T15:58:37.242Z,92751.38
2022-10-14T16:01:23.515Z,92747.72
2022-10-14T16:04:14.734Z,92748.44
2022-10-14T16:06:58.071Z,92752.53
2022-10-14T16:09:41.325Z,92750.03
2022-10-14T16:12:28.272Z,92749.16
2022-10-14T16:15:27.160Z,92744.03
2022-10-14T16:18:11.381Z,92747.34
2022-10-14T16:20:54.365Z,92742.69
2022-10-14T16:23:38.087Z,92737.22
2022-10-14T16:26:21.016Z,92734.38
2022-10-14T16:29:04.245Z,92730.84
2022-10-14T16:31:49.649Z,92740.13
2022-10-14T16:34:34.540Z,92745.81
2022-10-14T16:37:17.391Z,92747.50
2022-10-14T16:40:00.480Z,92747.38
2022-10-14T16:42:43.383Z,92745.50
2022-10-14T16:45:26.259Z,92748.63
2022-10-14T16:48:09.329Z,92748.13
2022-10-14T16:50:55.015Z,92756.59
2022-10-14T16:53:45.501Z,92754.69
2022-10-14T16:56:45.588Z,92751.66
2022-10-14T16:59:29.062Z,92756.19
2022-10-14T17:02:15.529Z,92757.16
2022-10-14T17:04:58.470Z,92749.59
2022-10-14T17:07:43.394Z,92744.44
2022-10-14T17:10:26.366Z,92749.75
2022-10-14T17:13:09.363Z,92756.72
2022-10-14T17:16:00.091Z,92755.09
2022-10-14T17:18:43.861Z,92758.81
2022-10-14T17:21:29.609Z,92763.38
2022-10-14T17:24:16.851Z,92760.94
2022-10-14T17:27:02.611Z,92766.09
2022-10-14T17:29:45.477Z,92765.47
2022-10-14T17:32:28.697Z,92765.66
2022-10-14T17:35:14.476Z,92763.06
2022-10-14T17:37:58.260Z,92757.91
2022-10-14T17:40:43.603Z,92757.06
2022-10-14T17:43:26.470Z,92747.72
2022-10-14T17:46:12.105Z,92743.72
2022-10-14T17:48:56.877Z,92749.84
2022-10-14T17:51:39.822Z,92753.59
2022-10-14T17:54:22.703Z,92756.31
2022-10-14T17:57:06.944Z,92755.88
2022-10-14T17:59:49.811Z,92748.63
2022-10-14T18:02:32.768Z,92747.03
2022-10-14T18:05:16.455Z,92743.81
2022-10-14T18:07:59.419Z,92748.19
2022-10-14T18:10:42.330Z,92740.78
2022-10-14T18:13:26.644Z,92747.69
2022-10-14T18:16:12.044Z,92742.72
2022-10-14T18:18:55.954Z,92734.97
2022-10-14T18:21:41.600Z,92734.97
2022-10-14T18:24:24.649Z,92733.53
2022-10-14T18:27:07.619Z,92736.28
2022-10-14T18:29:51.914Z,92743.56
2022-10-14T18:32:34.970Z,92747.13
2022-10-14T18:35:17.906Z,92748.41
2022-10-14T18:38:00.817Z,92752.28
2022-10-14T18:40:43.660Z,92754.09
2022-10-14T18:43:26.572Z,92751.84
2022-10-14T18:46:13.921Z,92745.88
2022-10-14T18:48:57.862Z,92741.50
2022-10-14T18:51:43.447Z,92744.09
2022-10-14T18:54:26.389Z,92745.88
2022-10-14T18:57:10.131Z,92738.28
2022-10-14T18:59:53.006Z,92734.91
2022-10-14T19:02:37.408Z,92736.06
2022-10-14T19:05:20.373Z,92731.38
2022-10-14T19:08:03.784Z,92729.44
2022-10-14T19:10:46.627Z,92719.44
2022-10-14T19:13:29.787Z,92722.84
2022-10-14T19:16:17.057Z,92718.66
2022-10-14T19:19:04.067Z,92723.81
2022-10-14T19:21:49.704Z,92718.31
2022-10-14T19:24:32.585Z,92714.63
2022-10-14T19:27:15.490Z,92716.03
2022-10-14T19:29:58.301Z,92711.69
2022-10-14T19:32:41.194Z,92707.19
2022-10-14T19:35:25.436Z,92718.13
2022-10-14T19:38:08.359Z,92717.97
2022-10-14T19:40:51.276Z,92719.38
2022-10-14T19:43:34.846Z,92718.41
2022-10-14T19:46:17.730Z,92720.34
2022-10-14T19:49:03.467Z,92721.00
2022-10-14T19:51:47.647Z,92716.66
2022-10-14T19:54:30.563Z,92715.03
2022-10-14T19:57:13.441Z,92702.47
2022-10-14T19:59:56.296Z,92698.09
2022-10-14T20:02:40.101Z,92694.75
2022-10-14T20:05:23.091Z,92693.75
2022-10-14T20:08:07.391Z,92699.59
2022-10-14T20:10:50.311Z,92696.22
2022-10-14T20:13:33.454Z,92702.34
2022-10-14T20:16:16.457Z,92702.50
2022-10-14T20:18:59.414Z,92704.94
2022-10-14T20:21:42.242Z,92701.53
2022-10-14T20:24:26.456Z,92700.94
2022-10-14T20:27:11.884Z,92698.16
2022-10-14T20:29:55.197Z,92696.38
2022-10-14T20:32:38.091Z,92710.25
2022-10-14T20:35:21.019Z,92699.44
2022-10-14T20:38:03.959Z,92700.94
2022-10-14T20:40:48.195Z,92701.53
2022-10-14T20:43:31.029Z,92693.19
2022-10-14T20:46:14.322Z,92691.69
2022-10-14T20:48:58.474Z,92687.03
2022-10-14T20:51:41.589Z,92682.88
2022-10-14T20:54:24.463Z,92673.97
2022-10-14T20:57:08.684Z,92675.59
2022-10-14T20:59:51.618Z,92672.03
2022-10-14T21:02:34.753Z,92669.78
2022-10-14T21:05:17.695Z,92670.28
2022-10-14T21:08:00.550Z,92668.34
2022-10-14T21:10:43.395Z,92674.34
2022-10-14T21:13:27.774Z,92678.66
2022-10-14T21:16:15.198Z,92666.66
2022-10-14T21:18:59.960Z,92667.13
2022-10-14T21:21:45.323Z,92666.94
2022-10-14T21:24:28.165Z,92654.56
2022-10-14T21:27:11.065Z,92650.06
2022-10-14T21:32:43.227Z,92637.44
2022-10-14T21:35:26.330Z,92638.84
2022-10-14T21:38:09.148Z,92638.22
2022-10-14T21:40:52.267Z,92630.19
2022-10-14T21:43:37.482Z,92624.88
2022-10-14T21:46:21.738Z,92619.69
2022-10-14T21:49:05.219Z,92619.19
2022-10-14T21:51:48.083Z,92626.66
2022-10-14T21:54:30.969Z,92626.47
2022-10-14T21:57:13.865Z,92627.44
2022-10-14T21:59:56.697Z,92630.03
2022-10-14T22:02:40.958Z,92617.44
2022-10-14T22:05:23.996Z,92611.13
2022-10-14T22:08:06.990Z,92614.41
2022-10-14T22:10:49.862Z,92615.66
2022-10-14T22:13:33.364Z,92608.41
2022-10-14T22:16:17.815Z,92610.03
2022-10-14T22:19:05.009Z,92606.13
2022-10-14T22:21:47.929Z,92605.97
2022-10-14T22:24:30.906Z,92601.25
2022-10-14T22:27:13.790Z,92602.28
2022-10-14T22:29:56.639Z,92601.47
2022-10-14T22:32:39.533Z,92604.03
2022-10-14T22:35:24.745Z,92593.91
2022-10-14T22:38:07.648Z,92596.31
2022-10-14T22:40:50.505Z,92590.19
2022-10-14T22:43:33.778Z,92584.81
2022-10-14T22:46:19.610Z,92585.97
2022-10-14T22:49:02.568Z,92577.41
2022-10-14T22:51:46.860Z,92575.94
2022-10-14T22:54:29.789Z,92571.09
2022-10-14T22:57:12.719Z,92579.47
2022-10-14T22:59:55.593Z,92574.81
2022-10-14T23:02:38.458Z,92572.50
2022-10-14T23:05:21.386Z,92567.34
2022-10-14T23:08:09.945Z,92566.22
2022-10-14T23:10:52.820Z,92564.72
2022-10-14T23:13:35.847Z,92563.91
2022-10-14T23:16:20.678Z,92562.94
2022-10-14T23:19:03.602Z,92565.50
2022-10-14T23:21:46.448Z,92558.59
2022-10-14T23:24:30.959Z,92550.38
2022-10-14T23:27:13.766Z,92554.22
2022-10-14T23:29:56.997Z,92556.06
2022-10-14T23:32:39.901Z,92549.81
2022-10-14T23:35:23.450Z,92554.09
2022-10-14T23:38:06.460Z,92546.81
2022-10-14T23:40:50.698Z,92539.28
2022-10-14T23:43:33.972Z,92545.28
2022-10-14T23:46:17.362Z,92538.97
2022-10-14T23:49:07.742Z,92527.34
2022-10-14T23:52:03.065Z,92538.63
2022-10-14T23:54:45.951Z,92524.94
2022-10-14T23:57:30.245Z,92525.97
